Flugplatz Großenhain

Für EDAK sind keine METAR/TAF Berichte vorhanden.
Es werden die Flugwettermeldungen vom Flugplatz Dresden in 24 km Entfernung angezeigt.

Bericht für EDDC

vom 22.01. um 14:20 UTC

Wind 7 kt aus 270°

Sichtweite 2000 m

schwacher Sprühregen

feuchter Dunst

aufgebrochene Bewölkung in 200 ft

Temperatur 1.0°C

Taupunkt 1.0°C

Luftfeuchtigkeit 100%

Luftdruck 1031 hPa

keine wesentliche Wetteränderung innerhalb den nächsten 2 Stunden zu erwarten

EDDC 221420Z 27007KT 230V310 2000 -DZ BR BKN002 01/01 Q1031 NOSIG

Prognose für EDDC

vom 22.01. um 00:00 UTC

Zwischen 00:00 UTC und 00:00 UTC

Wind 7 kt aus 280°

Sichtweite 6000 m

aufgelockert bewölkt in 300 ft

aufgebrochene Bewölkung in 600 ft


Zwischen 00:00 UTC und 00:00 UTC zeitweise

Sichtweite 2500 m

feuchter Dunst

aufgebrochene Bewölkung in 300 ft


Zwischen 00:00 und 00:00 UTC übergehend zu

Wind 4 kt aus 210°

Sichtweite 6000 m

aufgelockert bewölkt in 300 ft

aufgebrochene Bewölkung in 600 ft


Am 23.01. zwischen 00:00 und 00:00 UTC übergehend zu

Wind 4 kt aus 210°

Sichtweite 6000 m

aufgelockert bewölkt in 2000 ft

TAF EDDC 221100Z 2212/2312 28007KT 6000 SCT003 BKN006 TEMPO 2212/2309 2500 BR BKN003 BECMG 2221/2224 21004KT BECMG 2309/2312 SCT020
Impressum